createdAt,value
2018-07-12T00:02:13.201Z,99.90
2018-07-12T00:04:41.128Z,99.90
2018-07-12T00:07:09.013Z,99.90
2018-07-12T00:09:36.877Z,99.90
2018-07-12T00:12:04.756Z,99.90
2018-07-12T00:14:32.720Z,99.90
2018-07-12T00:17:00.565Z,99.90
2018-07-12T00:19:28.489Z,99.90
2018-07-12T00:21:56.542Z,99.90
2018-07-12T00:24:24.413Z,99.90
2018-07-12T00:26:52.248Z,99.90
2018-07-12T00:29:20.252Z,99.90
2018-07-12T00:31:48.308Z,99.90
2018-07-12T00:34:16.200Z,99.90
2018-07-12T00:36:44.120Z,99.90
2018-07-12T00:39:12.027Z,99.90
2018-07-12T00:41:39.897Z,99.90
2018-07-12T00:44:07.741Z,99.90
2018-07-12T00:46:35.672Z,99.90
2018-07-12T00:49:03.535Z,99.90
2018-07-12T00:51:31.760Z,99.90
2018-07-12T00:53:59.612Z,99.90
2018-07-12T00:56:27.460Z,99.90
2018-07-12T00:58:55.329Z,99.90
2018-07-12T01:01:23.180Z,99.90
2018-07-12T01:03:51.079Z,99.90
2018-07-12T01:06:18.947Z,99.90
2018-07-12T01:08:46.813Z,99.90
2018-07-12T01:11:14.715Z,99.90
2018-07-12T01:13:42.582Z,99.90
2018-07-12T01:16:10.472Z,99.90
2018-07-12T01:18:38.414Z,99.90
2018-07-12T01:21:06.364Z,99.90
2018-07-12T01:23:34.197Z,99.90
2018-07-12T01:26:02.116Z,99.90
2018-07-12T01:28:29.963Z,99.90
2018-07-12T01:30:57.860Z,99.90
2018-07-12T01:33:25.695Z,99.90
2018-07-12T01:35:53.603Z,99.90
2018-07-12T01:38:21.464Z,99.90
2018-07-12T01:40:49.351Z,99.90
2018-07-12T01:43:17.212Z,99.90
2018-07-12T01:45:45.056Z,99.90
2018-07-12T01:48:13.368Z,99.90
2018-07-12T01:50:41.326Z,99.90
2018-07-12T01:53:09.224Z,99.90
2018-07-12T01:55:37.093Z,99.90
2018-07-12T01:58:04.972Z,99.90
2018-07-12T02:00:32.858Z,99.90
2018-07-12T02:03:00.706Z,99.90
2018-07-12T02:05:28.653Z,99.90
2018-07-12T02:07:56.528Z,99.90
2018-07-12T02:10:24.384Z,99.90
2018-07-12T02:12:52.235Z,99.90
2018-07-12T02:15:20.143Z,99.90
2018-07-12T02:17:48.034Z,99.90
2018-07-12T02:20:15.904Z,99.90
2018-07-12T02:22:43.754Z,99.90
2018-07-12T02:25:11.638Z,99.90
2018-07-12T02:27:39.495Z,99.90
2018-07-12T02:30:07.578Z,99.90
2018-07-12T02:32:35.424Z,99.90
2018-07-12T02:35:03.881Z,99.90
2018-07-12T02:37:31.823Z,99.90
2018-07-12T02:39:59.690Z,99.90
2018-07-12T02:42:27.641Z,99.90
2018-07-12T02:44:55.492Z,99.90
2018-07-12T02:47:23.416Z,99.90
2018-07-12T02:49:51.273Z,99.90
2018-07-12T02:52:19.141Z,99.90
2018-07-12T02:54:47.082Z,99.90
2018-07-12T02:57:14.976Z,99.90
2018-07-12T02:59:42.838Z,99.90
2018-07-12T03:02:10.740Z,99.90
2018-07-12T03:04:38.685Z,99.90
2018-07-12T03:07:06.557Z,99.90
2018-07-12T03:09:34.443Z,99.90
2018-07-12T03:12:03.313Z,99.90
2018-07-12T03:14:31.196Z,99.90
2018-07-12T03:16:59.058Z,99.90
2018-07-12T03:19:26.946Z,99.90
2018-07-12T03:21:55.015Z,99.90
2018-07-12T03:24:22.866Z,99.90
2018-07-12T03:26:51.328Z,99.90
2018-07-12T03:29:19.237Z,99.90
2018-07-12T03:31:47.091Z,99.90
2018-07-12T03:34:17.947Z,99.90
2018-07-12T03:36:45.833Z,99.90
2018-07-12T03:39:13.697Z,99.90
2018-07-12T03:41:41.563Z,99.90
2018-07-12T03:44:09.699Z,99.90
2018-07-12T03:46:37.593Z,99.90
2018-07-12T03:49:05.474Z,99.90
2018-07-12T03:51:33.325Z,99.90
2018-07-12T03:54:01.227Z,99.90
2018-07-12T03:56:29.917Z,99.90
2018-07-12T03:58:57.899Z,99.90
2018-07-12T04:01:25.809Z,99.90
2018-07-12T04:03:53.780Z,99.90
2018-07-12T04:06:21.628Z,99.90
2018-07-12T04:08:50.950Z,99.90
2018-07-12T04:11:18.792Z,99.90
2018-07-12T04:13:46.684Z,99.90
2018-07-12T04:16:14.543Z,99.90
2018-07-12T04:18:42.428Z,99.90
2018-07-12T04:21:11.237Z,99.90
2018-07-12T04:23:39.086Z,99.90
2018-07-12T04:26:07.025Z,99.90
2018-07-12T04:28:34.922Z,99.90
2018-07-12T04:31:03.378Z,99.90
2018-07-12T04:33:31.259Z,99.90
2018-07-12T04:35:59.111Z,99.90
2018-07-12T04:38:27.018Z,99.90
2018-07-12T04:40:54.870Z,99.90
2018-07-12T04:43:22.725Z,99.90
2018-07-12T04:45:50.584Z,99.90
2018-07-12T04:48:18.578Z,99.90
2018-07-12T04:50:46.450Z,99.90
2018-07-12T04:53:14.354Z,99.90
2018-07-12T04:55:42.212Z,99.90
2018-07-12T04:58:10.137Z,99.90
2018-07-12T05:00:37.994Z,99.90
2018-07-12T05:03:05.847Z,99.90
2018-07-12T05:05:33.733Z,99.90
2018-07-12T05:08:02.078Z,99.90
2018-07-12T05:10:30.359Z,99.90
2018-07-12T05:12:58.235Z,99.90
2018-07-12T05:15:26.188Z,99.90
2018-07-12T05:17:54.153Z,99.90
2018-07-12T05:20:22.033Z,99.90
2018-07-12T05:22:50.797Z,99.90
2018-07-12T05:25:18.658Z,99.90
2018-07-12T05:27:46.532Z,99.90
2018-07-12T05:30:14.384Z,99.90
2018-07-12T05:32:42.267Z,99.90
2018-07-12T05:37:39.359Z,99.90
2018-07-12T05:40:08.323Z,99.90
2018-07-12T05:42:37.377Z,99.90
2018-07-12T05:45:06.487Z,99.90
2018-07-12T05:47:35.564Z,99.90
2018-07-12T05:50:04.599Z,99.90
2018-07-12T05:52:33.583Z,99.90
2018-07-12T05:55:16.828Z,99.90
2018-07-12T05:57:46.339Z,99.90
2018-07-12T06:00:15.812Z,99.90
2018-07-12T06:02:44.833Z,99.90
2018-07-12T06:05:13.818Z,99.90
2018-07-12T06:07:42.761Z,99.90
2018-07-12T06:10:11.754Z,99.90
2018-07-12T06:12:40.746Z,99.90
2018-07-12T06:17:38.373Z,99.90
2018-07-12T06:20:08.674Z,99.90
2018-07-12T06:22:37.708Z,99.90
2018-07-12T06:25:07.086Z,99.90
2018-07-12T06:27:36.180Z,99.90
2018-07-12T06:30:05.858Z,99.90
2018-07-12T06:32:34.793Z,99.90
2018-07-12T06:35:03.861Z,99.90
2018-07-12T06:37:32.865Z,99.90
2018-07-12T06:40:01.959Z,99.90
2018-07-12T06:42:31.063Z,99.90
2018-07-12T06:45:01.077Z,99.90
2018-07-12T06:47:30.171Z,99.90
2018-07-12T06:49:59.160Z,99.90
2018-07-12T06:52:28.156Z,99.90
2018-07-12T06:54:57.273Z,99.90
2018-07-12T06:59:55.323Z,99.90
2018-07-12T07:02:24.324Z,99.90
2018-07-12T07:04:53.307Z,99.90
2018-07-12T07:07:22.321Z,99.90
2018-07-12T07:09:51.319Z,99.90
2018-07-12T07:12:20.301Z,99.90
2018-07-12T07:14:49.396Z,99.90
2018-07-12T07:17:18.370Z,99.90
2018-07-12T07:19:47.384Z,99.90
2018-07-12T07:22:16.369Z,99.90
2018-07-12T07:24:45.452Z,99.90
2018-07-12T07:29:43.195Z,99.90
2018-07-12T07:32:12.165Z,99.90
2018-07-12T07:34:41.175Z,99.90
2018-07-12T07:37:10.296Z,99.90
2018-07-12T07:39:39.279Z,99.90
2018-07-12T07:42:08.307Z,99.90
2018-07-12T07:44:37.337Z,99.90
2018-07-12T07:47:06.399Z,99.90
2018-07-12T07:49:35.492Z,99.90
2018-07-12T07:52:04.454Z,99.90
2018-07-12T07:54:33.854Z,99.90
2018-07-12T07:57:02.943Z,99.90
2018-07-12T07:59:31.858Z,99.90
2018-07-12T08:02:00.851Z,99.90
2018-07-12T08:04:29.933Z,99.90
2018-07-12T08:06:58.954Z,99.90
2018-07-12T08:09:28.057Z,99.90
2018-07-12T08:11:57.018Z,99.90
2018-07-12T08:14:25.958Z,99.90
2018-07-12T08:16:55.450Z,99.90
2018-07-12T08:19:24.429Z,99.90
2018-07-12T08:22:05.781Z,99.90
2018-07-12T08:24:35.317Z,99.90
2018-07-12T08:27:04.933Z,99.90
2018-07-12T08:29:34.353Z,99.90
2018-07-12T08:32:04.463Z,99.90
2018-07-12T08:34:33.851Z,99.90
2018-07-12T08:37:02.876Z,99.90
2018-07-12T08:39:31.836Z,99.90
2018-07-12T08:42:00.804Z,99.90
2018-07-12T08:44:29.766Z,99.90
2018-07-12T08:46:58.837Z,99.90
2018-07-12T08:49:28.285Z,99.90
2018-07-12T08:51:57.278Z,99.90
2018-07-12T08:54:26.280Z,99.90
2018-07-12T08:56:55.257Z,99.90
2018-07-12T08:59:24.235Z,99.90
2018-07-12T09:01:53.264Z,99.90
2018-07-12T09:04:22.189Z,99.90
2018-07-12T09:06:51.166Z,99.90
2018-07-12T09:09:20.215Z,98.70
2018-07-12T09:11:49.247Z,98.70
2018-07-12T09:14:18.228Z,97.60
2018-07-12T09:16:47.252Z,95.70
2018-07-12T09:19:16.253Z,93.70
2018-07-12T09:21:45.480Z,96.00
2018-07-12T09:24:14.435Z,97.50
2018-07-12T09:26:43.423Z,97.80
2018-07-12T09:29:12.579Z,98.10
2018-07-12T09:31:41.625Z,98.00
2018-07-12T09:34:10.649Z,98.70
2018-07-12T09:36:39.651Z,98.40
2018-07-12T09:39:08.892Z,98.00
2018-07-12T09:41:37.835Z,98.10
2018-07-12T09:44:06.803Z,98.10
2018-07-12T09:46:35.748Z,96.70
2018-07-12T09:49:04.876Z,93.70
2018-07-12T09:51:33.802Z,91.10
2018-07-12T09:54:02.759Z,86.40
2018-07-12T09:56:43.157Z,84.80
2018-07-12T09:59:12.191Z,84.20
2018-07-12T10:04:15.087Z,81.00
2018-07-12T10:06:49.362Z,79.10
2018-07-12T10:09:24.682Z,76.60
2018-07-12T10:13:02.991Z,75.30
2018-07-12T10:15:37.282Z,76.70
2018-07-12T10:18:11.769Z,76.90
2018-07-12T10:20:40.734Z,75.60
2018-07-12T10:23:09.725Z,77.30
2018-07-12T10:25:38.714Z,78.90
2018-07-12T10:28:07.789Z,83.90
2018-07-12T10:30:36.742Z,85.90
2018-07-12T10:33:05.789Z,84.20
2018-07-12T10:35:35.805Z,82.20
2018-07-12T10:38:04.926Z,77.70
2018-07-12T10:40:33.905Z,78.10
2018-07-12T10:43:02.970Z,75.00
2018-07-12T10:45:31.917Z,72.80
2018-07-12T10:48:00.893Z,73.00
2018-07-12T10:50:29.978Z,71.30
2018-07-12T10:52:58.954Z,70.30
2018-07-12T10:55:27.892Z,67.80
2018-07-12T10:57:57.451Z,67.70
2018-07-12T11:00:26.485Z,65.80
2018-07-12T11:05:24.094Z,62.70
2018-07-12T11:07:53.195Z,62.90
2018-07-12T11:10:22.232Z,61.90
2018-07-12T11:13:02.696Z,59.90
2018-07-12T11:15:31.693Z,64.00
2018-07-12T11:18:00.732Z,65.80
2018-07-12T11:20:29.799Z,61.20
2018-07-12T11:22:58.811Z,60.90
2018-07-12T11:25:27.796Z,62.10
2018-07-12T11:27:56.813Z,65.50
2018-07-12T11:30:25.913Z,68.00
2018-07-12T11:32:54.864Z,64.60
2018-07-12T11:35:23.833Z,64.00
2018-07-12T11:37:52.963Z,61.60
2018-07-12T11:40:21.919Z,60.00
2018-07-12T11:42:51.045Z,61.40
2018-07-12T11:45:20.024Z,61.00
2018-07-12T11:47:49.013Z,59.30
2018-07-12T11:50:17.996Z,59.00
2018-07-12T11:52:47.049Z,59.80
2018-07-12T11:55:16.031Z,60.70
2018-07-12T11:57:44.992Z,61.20
2018-07-12T12:00:13.971Z,59.40
2018-07-12T12:02:42.939Z,58.50
2018-07-12T12:05:11.865Z,56.80
2018-07-12T12:07:40.861Z,56.20
2018-07-12T12:10:09.830Z,57.30
2018-07-12T12:12:38.804Z,56.90
2018-07-12T12:15:07.800Z,58.30
2018-07-12T12:17:36.868Z,58.90
2018-07-12T12:20:05.843Z,59.40
2018-07-12T12:22:34.829Z,59.60
2018-07-12T12:25:03.923Z,60.90
2018-07-12T12:27:32.937Z,61.00
2018-07-12T12:30:01.960Z,59.80
2018-07-12T12:32:31.000Z,59.40
2018-07-12T12:37:28.605Z,57.30
2018-07-12T12:39:57.624Z,56.70
2018-07-12T12:42:26.708Z,59.10
2018-07-12T12:44:56.140Z,60.70
2018-07-12T12:47:25.224Z,63.00
2018-07-12T12:49:54.288Z,62.50
2018-07-12T12:52:23.240Z,61.00
2018-07-12T12:54:52.206Z,57.50
2018-07-12T12:57:21.209Z,58.50
2018-07-12T12:59:50.483Z,57.10
2018-07-12T13:04:48.087Z,54.10
2018-07-12T13:07:17.064Z,56.40
2018-07-12T13:09:46.015Z,57.20
2018-07-12T13:12:15.087Z,58.10
2018-07-12T13:14:44.994Z,58.00
2018-07-12T13:17:13.968Z,58.50
2018-07-12T13:19:43.280Z,58.00
2018-07-12T13:22:12.216Z,57.20
2018-07-12T13:24:41.300Z,57.00
2018-07-12T13:27:10.247Z,55.00
2018-07-12T13:29:39.203Z,53.70
2018-07-12T13:32:08.176Z,53.40
2018-07-12T13:34:37.170Z,52.50
2018-07-12T13:37:06.149Z,51.70
2018-07-12T13:39:35.182Z,52.80
2018-07-12T13:42:04.235Z,52.50
2018-07-12T13:44:33.209Z,52.80
2018-07-12T13:47:02.176Z,53.10
2018-07-12T13:49:31.148Z,52.70
2018-07-12T13:52:00.173Z,54.30
2018-07-12T13:54:29.156Z,55.30
2018-07-12T13:56:58.115Z,55.90
2018-07-12T13:59:27.124Z,55.50
2018-07-12T14:01:56.117Z,54.50
2018-07-12T14:04:25.077Z,53.60
2018-07-12T14:06:54.068Z,53.00
2018-07-12T14:09:23.120Z,54.00
2018-07-12T14:11:52.327Z,53.80
2018-07-12T14:14:21.307Z,53.90
2018-07-12T14:16:50.281Z,52.00
2018-07-12T14:19:19.245Z,50.30
2018-07-12T14:21:48.248Z,49.60
2018-07-12T14:24:17.215Z,50.80
2018-07-12T14:26:46.181Z,51.20
2018-07-12T14:29:15.212Z,51.10
2018-07-12T14:31:44.190Z,50.70
2018-07-12T14:34:13.191Z,50.70
2018-07-12T14:36:42.292Z,49.30
2018-07-12T14:44:09.525Z,48.90
2018-07-12T14:46:38.492Z,49.30
2018-07-12T14:49:07.459Z,50.20
2018-07-12T14:51:36.502Z,50.50
2018-07-12T14:54:05.523Z,52.20
2018-07-12T14:56:34.580Z,50.60
2018-07-12T14:59:03.865Z,49.20
2018-07-12T15:01:33.201Z,49.10
2018-07-12T15:04:02.162Z,51.40
2018-07-12T15:06:31.255Z,52.60
2018-07-12T15:09:00.304Z,56.50
2018-07-12T15:11:29.206Z,59.50
2018-07-12T15:13:58.222Z,60.60
2018-07-12T15:16:27.171Z,62.10
2018-07-12T15:18:56.716Z,63.80
2018-07-12T15:21:25.720Z,65.00
2018-07-12T15:23:54.724Z,66.00
2018-07-12T15:28:52.963Z,68.90
2018-07-12T15:31:21.938Z,69.90
2018-07-12T15:33:50.959Z,70.30
2018-07-12T15:36:19.941Z,70.00
2018-07-12T15:38:49.046Z,71.10
2018-07-12T15:41:18.030Z,71.40
2018-07-12T15:43:47.025Z,72.30
2018-07-12T15:46:16.040Z,72.90
2018-07-12T15:48:45.004Z,72.80
2018-07-12T15:51:14.120Z,73.50
2018-07-12T15:53:43.117Z,74.90
2018-07-12T15:56:12.243Z,74.90
2018-07-12T15:58:41.426Z,74.70
2018-07-12T16:01:10.413Z,75.20
2018-07-12T16:06:08.061Z,74.10
2018-07-12T16:08:37.179Z,74.70
2018-07-12T16:11:06.300Z,74.90
2018-07-12T16:13:35.510Z,74.50
2018-07-12T16:16:04.720Z,74.80
2018-07-12T16:18:33.807Z,74.30
2018-07-12T16:21:03.253Z,74.70
2018-07-12T16:23:32.213Z,73.90
2018-07-12T16:26:01.257Z,73.70
2018-07-12T16:28:30.558Z,73.30
2018-07-12T16:30:59.706Z,72.20
2018-07-12T16:33:28.828Z,72.30
2018-07-12T16:35:57.826Z,73.80
2018-07-12T16:38:26.840Z,73.60
2018-07-12T16:40:55.897Z,78.60
2018-07-12T16:43:24.935Z,83.90
2018-07-12T16:45:54.010Z,87.30
2018-07-12T16:48:23.096Z,90.20
2018-07-12T16:50:58.785Z,91.70
2018-07-12T16:53:27.867Z,93.10
2018-07-12T16:55:56.876Z,94.10
2018-07-12T16:58:25.951Z,95.00
2018-07-12T17:00:54.985Z,95.50
2018-07-12T17:03:24.007Z,94.70
2018-07-12T17:05:53.126Z,93.90
2018-07-12T17:08:22.235Z,94.10
2018-07-12T17:10:51.262Z,94.50
2018-07-12T17:13:21.522Z,94.00
2018-07-12T17:15:51.105Z,94.30
2018-07-12T17:18:21.295Z,94.00
2018-07-12T17:20:50.282Z,94.30
2018-07-12T17:23:19.257Z,94.40
2018-07-12T17:28:17.369Z,94.60
2018-07-12T17:30:46.481Z,94.90
2018-07-12T17:33:15.490Z,94.60
2018-07-12T17:35:44.908Z,94.70
2018-07-12T17:38:13.925Z,95.00
2018-07-12T17:40:43.060Z,95.70
2018-07-12T17:43:12.443Z,99.90
2018-07-12T17:45:41.501Z,99.90
2018-07-12T17:48:10.615Z,99.90
2018-07-12T17:50:39.734Z,99.90
2018-07-12T17:53:09.009Z,99.90
2018-07-12T17:55:38.044Z,99.90
2018-07-12T17:58:08.095Z,99.90
2018-07-12T18:00:37.116Z,99.90
2018-07-12T18:03:06.369Z,99.90
2018-07-12T18:05:35.559Z,99.90
2018-07-12T18:08:04.597Z,99.90
2018-07-12T18:10:34.500Z,99.90
2018-07-12T18:13:03.640Z,99.90
2018-07-12T18:15:32.727Z,99.90
2018-07-12T18:18:01.750Z,99.90
2018-07-12T18:20:30.805Z,99.90
2018-07-12T18:22:59.945Z,99.90
2018-07-12T18:25:28.930Z,99.90
2018-07-12T18:27:57.886Z,99.90
2018-07-12T18:30:26.909Z,99.90
2018-07-12T18:32:56.007Z,99.90
2018-07-12T18:35:25.088Z,99.90
2018-07-12T18:37:54.242Z,99.90
2018-07-12T18:40:23.278Z,99.90
2018-07-12T18:42:52.387Z,99.90
2018-07-12T18:45:21.549Z,99.90
2018-07-12T18:47:50.574Z,99.90
2018-07-12T18:50:19.628Z,99.90
2018-07-12T18:52:48.676Z,99.90
2018-07-12T18:55:17.705Z,99.90
2018-07-12T18:57:46.798Z,99.90
2018-07-12T19:00:15.798Z,99.90
2018-07-12T19:02:44.905Z,99.90
2018-07-12T19:05:13.909Z,99.90
2018-07-12T19:07:42.925Z,99.90
2018-07-12T19:10:11.899Z,99.90
2018-07-12T19:12:41.112Z,99.90
2018-07-12T19:15:10.297Z,99.90
2018-07-12T19:17:40.274Z,99.90
2018-07-12T19:20:09.420Z,99.90
2018-07-12T19:22:38.359Z,99.90
2018-07-12T19:25:07.400Z,99.90
2018-07-12T19:27:36.527Z,99.90
2018-07-12T19:30:05.725Z,99.90
2018-07-12T19:32:34.752Z,99.90
2018-07-12T19:35:04.030Z,99.90
2018-07-12T19:37:32.906Z,99.90
2018-07-12T19:40:02.095Z,99.90
2018-07-12T19:42:31.096Z,99.90
2018-07-12T19:50:20.764Z,99.90
2018-07-12T19:52:49.704Z,99.90
2018-07-12T19:55:18.735Z,99.90
2018-07-12T19:57:47.764Z,99.90
2018-07-12T20:02:45.431Z,99.90
2018-07-12T20:05:14.401Z,99.90
2018-07-12T20:07:43.405Z,99.90
2018-07-12T20:10:12.403Z,99.90
2018-07-12T20:12:41.376Z,99.90
2018-07-12T20:15:10.360Z,99.90
2018-07-12T20:17:39.469Z,99.90
2018-07-12T20:20:08.951Z,99.90
2018-07-12T20:22:37.944Z,99.90
2018-07-12T20:25:06.990Z,99.90
2018-07-12T20:27:36.165Z,99.90
2018-07-12T20:30:05.968Z,99.90
2018-07-12T20:32:35.071Z,99.90
2018-07-12T20:35:04.190Z,99.90
2018-07-12T20:37:33.244Z,99.90
2018-07-12T20:40:02.248Z,99.90
2018-07-12T20:44:59.978Z,99.90
2018-07-12T20:47:28.956Z,99.90
2018-07-12T20:49:57.948Z,99.90
2018-07-12T20:52:26.999Z,99.90
2018-07-12T20:54:56.050Z,99.90
2018-07-12T20:57:25.095Z,99.90
2018-07-12T20:59:54.104Z,99.90
2018-07-12T21:04:52.620Z,99.90
2018-07-12T21:07:21.762Z,99.90
2018-07-12T21:09:50.846Z,99.90
2018-07-12T21:12:19.833Z,99.90
2018-07-12T21:14:48.831Z,99.90
2018-07-12T21:17:18.164Z,99.90
2018-07-12T21:19:47.161Z,99.90
2018-07-12T21:22:16.166Z,99.90
2018-07-12T21:24:45.126Z,99.90
2018-07-12T21:27:14.149Z,99.90
2018-07-12T21:29:43.232Z,99.90
2018-07-12T21:32:12.244Z,99.90
2018-07-12T21:34:41.612Z,99.90
2018-07-12T21:37:10.583Z,99.90
2018-07-12T21:39:40.111Z,99.90
2018-07-12T21:42:09.134Z,99.90
2018-07-12T21:44:38.230Z,99.90
2018-07-12T21:47:07.171Z,99.90
2018-07-12T21:49:36.221Z,99.90
2018-07-12T21:52:05.243Z,99.90
2018-07-12T21:54:34.203Z,99.90
2018-07-12T21:57:03.180Z,99.90
2018-07-12T21:59:32.214Z,99.90
2018-07-12T22:02:01.227Z,99.90
2018-07-12T22:04:30.307Z,99.90
2018-07-12T22:07:08.436Z,99.90
2018-07-12T22:09:37.447Z,99.90
2018-07-12T22:12:06.575Z,99.90
2018-07-12T22:14:35.659Z,99.90
2018-07-12T22:17:04.742Z,99.90
2018-07-12T22:19:33.764Z,99.90
2018-07-12T22:22:02.999Z,99.90
2018-07-12T22:24:32.024Z,99.90
2018-07-12T22:27:01.008Z,99.90
2018-07-12T22:29:30.078Z,99.90
2018-07-12T22:31:59.547Z,99.90
2018-07-12T22:34:28.661Z,99.90
2018-07-12T22:36:58.533Z,99.90
2018-07-12T22:39:27.569Z,99.90
2018-07-12T22:41:56.552Z,99.90
2018-07-12T22:44:25.633Z,99.90
2018-07-12T22:46:54.607Z,99.90
2018-07-12T22:49:24.358Z,99.90
2018-07-12T22:51:53.860Z,99.90
2018-07-12T22:54:22.971Z,99.90
2018-07-12T22:56:52.259Z,99.90
2018-07-12T22:59:21.229Z,99.90
2018-07-12T23:01:50.244Z,99.90
2018-07-12T23:04:19.347Z,99.90
2018-07-12T23:06:48.471Z,99.90
2018-07-12T23:09:17.483Z,99.90
2018-07-12T23:11:46.467Z,99.90
2018-07-12T23:14:16.091Z,99.90
2018-07-12T23:16:45.068Z,99.90
2018-07-12T23:19:14.072Z,99.90
2018-07-12T23:21:43.567Z,99.90
2018-07-12T23:24:12.829Z,99.90
2018-07-12T23:26:42.031Z,99.90
2018-07-12T23:29:11.050Z,99.90
2018-07-12T23:31:40.139Z,99.90
2018-07-12T23:34:09.202Z,99.90
2018-07-12T23:39:08.150Z,99.90
2018-07-12T23:41:37.129Z,99.90
2018-07-12T23:44:06.234Z,99.90
2018-07-12T23:46:35.201Z,99.90
2018-07-12T23:49:04.935Z,99.90
2018-07-12T23:51:34.681Z,99.90
2018-07-12T23:54:03.703Z,99.90
2018-07-12T23:56:32.643Z,99.90
2018-07-12T23:59:01.637Z,99.90
